Time;durP1;ratioP1;P1;durP2;ratioP2;P2;SDS_P1;SDS_P2;PMS_P1;PMS_P2;Temp;Humidity;BMP_temperature;BMP_pressure;BME280_temperature;BME280_humidity;BME280_pressure;Samples;Min_cycle;Max_cycle;Signal;HPM_P1;HPM_P2
2021/05/18 00:01:47;;;;;;;10.82;3.10;;;;;;;9.81;76.93;98609.13;5117036;28;20055;-94
2021/05/18 00:04:14;;;;;;;9.90;2.70;;;;;;;9.66;76.94;98592.69;5117468;28;20043;-94
2021/05/18 00:06:41;;;;;;;8.70;2.67;;;;;;;9.69;77.50;98604.13;5118265;28;20055;-93
2021/05/18 00:12:07;;;;;;;12.45;3.05;;;;;;;9.58;78.47;98607.06;5131271;27;20877;-93
2021/05/18 00:14:35;;;;;;;12.00;2.63;;;;;;;9.55;78.24;98605.38;5106112;28;20082;-92
2021/05/18 00:17:02;;;;;;;11.43;2.93;;;;;;;9.50;78.56;98599.31;5112242;28;20371;-94
2021/05/18 00:19:28;;;;;;;9.25;2.65;;;;;;;9.42;78.65;98574.75;5112208;28;20036;-94
2021/05/18 00:21:54;;;;;;;12.45;2.67;;;;;;;9.36;78.40;98572.25;5100942;28;20064;-93
2021/05/18 00:24:20;;;;;;;8.65;2.70;;;;;;;9.27;78.98;98564.53;5109889;28;20035;-93
2021/05/18 00:26:47;;;;;;;11.65;3.50;;;;;;;9.37;79.12;98587.28;5105700;28;20043;-94
2021/05/18 00:29:14;;;;;;;8.75;2.70;;;;;;;9.25;78.99;98572.50;5099682;28;20063;-94
2021/05/18 00:31:40;;;;;;;11.10;3.40;;;;;;;9.13;79.33;98568.41;5107648;28;20176;-92
2021/05/18 00:34:06;;;;;;;13.93;3.22;;;;;;;9.20;79.97;98580.59;5094117;28;20068;-94
2021/05/18 00:36:32;;;;;;;15.20;2.90;;;;;;;9.23;79.86;98585.81;5093930;28;20040;-93
2021/05/18 00:38:59;;;;;;;9.25;2.58;;;;;;;9.19;79.43;98560.25;5109499;28;20048;-92
2021/05/18 00:41:25;;;;;;;7.85;2.80;;;;;;;9.13;79.73;98556.88;5108686;28;20044;-92
2021/05/18 00:43:51;;;;;;;11.30;2.80;;;;;;;9.09;79.53;98550.81;5115816;28;20097;-93
2021/05/18 00:46:18;;;;;;;10.73;3.53;;;;;;;9.08;80.11;98572.91;5097739;28;20066;-95
2021/05/18 00:48:56;;;;;;;10.68;3.85;;;;;;;8.98;80.14;98545.75;5097923;28;20044;-94
2021/05/18 00:51:23;;;;;;;9.43;2.75;;;;;;;9.24;79.77;98584.91;5103173;28;20036;-93
2021/05/18 00:53:49;;;;;;;12.45;2.42;;;;;;;9.24;80.01;98587.56;5102559;28;20040;-94
2021/05/18 00:59:14;;;;;;;9.57;2.78;;;;;;;9.17;80.56;98617.81;5125886;27;20357;-93
2021/05/18 01:01:40;;;;;;;7.28;2.38;;;;;;;9.14;80.50;98617.88;5125858;28;20045;-91
2021/05/18 01:04:12;;;;;;;14.43;2.85;;;;;;;9.14;80.46;98619.66;5124479;27;20463;-91
2021/05/18 01:06:38;;;;;;;13.82;3.17;;;;;;;9.08;80.66;98619.81;5125433;28;20081;-91
2021/05/18 01:12:07;;;;;;;14.73;3.10;;;;;;;8.96;79.80;98602.41;5138072;27;20357;-93
2021/05/18 01:14:33;;;;;;;12.50;3.03;;;;;;;8.85;80.40;98615.91;5136143;27;20484;-93
2021/05/18 01:16:59;;;;;;;9.05;3.33;;;;;;;8.93;80.24;98618.38;5135550;27;20093;-95
2021/05/18 01:19:26;;;;;;;11.45;3.55;;;;;;;8.94;80.06;98623.66;5136314;27;20047;-93
2021/05/18 01:21:55;;;;;;;10.70;3.10;;;;;;;8.96;79.73;98619.19;5136372;27;20119;-93
2021/05/18 01:24:21;;;;;;;14.40;3.85;;;;;;;8.96;80.59;98639.53;5137133;27;20047;-93
2021/05/18 01:26:48;;;;;;;9.73;3.15;;;;;;;8.97;80.48;98651.88;5137240;27;20043;-92
2021/05/18 01:29:14;;;;;;;10.65;2.88;;;;;;;8.78;80.50;98643.44;5134787;27;20047;-92
2021/05/18 01:31:47;;;;;;;10.60;3.03;;;;;;;8.78;80.41;98651.41;5132703;27;20031;-92
2021/05/18 01:34:14;;;;;;;12.32;2.83;;;;;;;8.80;80.52;98670.81;5132897;27;20070;-93
2021/05/18 01:36:41;;;;;;;14.50;3.33;;;;;;;8.78;81.03;98676.16;5132717;27;20400;-92
2021/05/18 01:45:19;;;;;;;6.25;2.60;;;;;;;8.72;80.88;98683.34;5133197;27;20336;-93
2021/05/18 01:47:49;;;;;;;10.27;2.90;;;;;;;8.69;80.94;98686.06;5138489;27;20039;-93
2021/05/18 01:50:17;;;;;;;9.23;2.88;;;;;;;8.71;81.26;98698.38;5134065;27;20504;-94
2021/05/18 01:52:43;;;;;;;9.85;3.47;;;;;;;8.62;81.07;98695.94;5145172;27;20142;-93
2021/05/18 01:55:12;;;;;;;9.55;2.95;;;;;;;8.56;81.40;98696.91;5137205;27;20039;-93
2021/05/18 01:57:38;;;;;;;8.30;2.58;;;;;;;8.33;81.87;98676.16;5140875;27;20092;-93
2021/05/18 02:00:07;;;;;;;11.82;3.50;;;;;;;8.36;82.04;98691.13;5138789;27;20126;-95
2021/05/18 02:02:34;;;;;;;10.25;2.75;;;;;;;8.37;82.20;98692.84;5133326;28;20404;-94
2021/05/18 02:05:06;;;;;;;9.63;2.70;;;;;;;8.38;82.10;98700.78;5132720;28;20039;-94
2021/05/18 02:07:35;;;;;;;11.57;3.13;;;;;;;8.27;81.72;98676.28;5134145;28;20058;-93
2021/05/18 02:10:03;;;;;;;10.53;2.73;;;;;;;8.27;81.86;98686.00;5139824;27;20130;-92
2021/05/18 02:12:29;;;;;;;7.97;2.92;;;;;;;8.19;81.95;98681.69;5140296;27;20396;-93
2021/05/18 02:15:01;;;;;;;11.75;3.42;;;;;;;8.22;82.54;98705.50;5133443;28;20046;-95
2021/05/18 02:20:36;;;;;;;11.38;3.13;;;;;;;8.27;82.17;98716.00;5112966;27;20350;-91
2021/05/18 02:26:02;;;;;;;8.98;2.70;;;;;;;8.26;82.37;98713.38;5136655;27;20394;-94
2021/05/18 02:28:29;;;;;;;14.88;3.15;;;;;;;8.26;82.51;98713.38;5137160;28;20048;-94
2021/05/18 02:30:55;;;;;;;12.55;2.80;;;;;;;8.26;82.95;98714.25;5124518;28;20061;-93
2021/05/18 02:33:21;;;;;;;14.45;3.67;;;;;;;8.29;82.56;98716.00;5134016;27;20049;-94
2021/05/18 02:35:46;;;;;;;10.73;2.72;;;;;;;8.17;82.69;98702.03;5136466;27;20047;-94
2021/05/18 02:38:12;;;;;;;13.45;2.67;;;;;;;8.10;82.51;98734.84;5136700;27;20111;-93
2021/05/18 02:40:40;;;;;;;10.50;3.05;;;;;;;8.07;82.93;98739.31;5136420;27;20043;-94
2021/05/18 02:43:11;;;;;;;10.20;3.28;;;;;;;7.98;83.46;98735.94;5138336;27;20039;-94
2021/05/18 02:45:45;;;;;;;13.65;2.97;;;;;;;8.09;83.36;98750.75;5136765;27;20161;-94
2021/05/18 02:51:11;;;;;;;10.80;3.38;;;;;;;8.13;82.76;98699.47;5135927;27;20366;-93
2021/05/18 02:53:37;;;;;;;12.65;3.42;;;;;;;8.15;82.58;98703.84;5136706;27;20488;-94
2021/05/18 02:56:13;;;;;;;11.85;3.33;;;;;;;8.33;82.84;98731.78;5136525;27;20054;-94
2021/05/18 02:58:41;;;;;;;13.00;2.95;;;;;;;8.28;82.40;98715.09;5135397;27;20039;-95
2021/05/18 03:01:07;;;;;;;12.25;3.00;;;;;;;8.42;81.64;98717.53;5133480;27;20035;-94
2021/05/18 03:03:33;;;;;;;10.25;4.47;;;;;;;8.68;81.01;98735.56;5133271;27;20036;-93
2021/05/18 03:05:59;;;;;;;11.52;3.08;;;;;;;8.60;80.64;98718.94;5133110;27;20039;-93
2021/05/18 03:08:25;;;;;;;12.32;3.95;;;;;;;8.52;81.44;98736.75;5133841;27;20092;-95
2021/05/18 03:10:51;;;;;;;16.25;3.30;;;;;;;8.54;81.74;98740.25;5135730;27;20058;-96
2021/05/18 03:13:17;;;;;;;13.32;3.92;;;;;;;8.37;81.96;98716.69;5137505;27;20051;-94
2021/05/18 03:15:43;;;;;;;10.65;3.20;;;;;;;8.48;81.56;98730.66;5135507;27;20040;-94
2021/05/18 03:18:10;;;;;;;8.10;2.78;;;;;;;8.38;81.53;98721.97;5135810;27;20420;-94
2021/05/18 03:20:35;;;;;;;11.27;3.13;;;;;;;8.47;81.17;98736.00;5134078;27;20046;-93
2021/05/18 03:23:01;;;;;;;13.65;2.90;;;;;;;8.59;80.61;98736.63;5132272;27;20032;-92
2021/05/18 03:25:29;;;;;;;10.98;3.33;;;;;;;8.40;80.74;98717.56;5134526;27;20035;-93
2021/05/18 03:27:57;;;;;;;18.05;3.85;;;;;;;8.57;80.37;98734.91;5132836;27;20047;-94
2021/05/18 03:36:17;;;;;;;13.15;3.03;;;;;;;8.36;80.65;98718.47;5174257;27;20887;-93
2021/05/18 03:38:47;;;;;;;10.90;3.13;;;;;;;8.28;80.98;98712.44;5169811;27;20043;-94
2021/05/18 04:17:24;;;;;;;10.13;3.30;;;;;;;8.68;79.09;98751.47;5109570;27;20338;-94
2021/05/18 05:07:31;;;;;;;9.07;3.15;;;;;;;11.15;69.99;98752.53;5189698;27;20350;-94
2021/05/18 05:09:57;;;;;;;6.90;2.85;;;;;;;11.59;68.63;98773.38;5157657;27;20055;-94
2021/05/18 05:15:09;;;;;;;10.73;3.42;;;;;;;12.18;66.49;98781.25;5107944;27;20388;-93
2021/05/18 05:17:35;;;;;;;12.55;4.10;;;;;;;12.33;65.48;98794.06;5108389;28;20044;-93
2021/05/18 05:20:01;;;;;;;9.80;3.58;;;;;;;12.40;65.54;98780.53;5104124;28;20036;-93
2021/05/18 05:22:27;;;;;;;11.77;3.75;;;;;;;12.80;64.09;98785.34;5105899;28;20040;-93
2021/05/18 05:24:53;;;;;;;11.55;3.97;;;;;;;12.72;63.92;98785.63;5105968;28;20040;-93
2021/05/18 05:27:18;;;;;;;10.07;4.07;;;;;;;13.14;63.92;98814.38;5106820;28;20048;-91
2021/05/18 05:29:47;;;;;;;9.30;3.97;;;;;;;13.38;62.92;98811.75;5108429;28;20043;-92
2021/05/18 05:32:19;;;;;;;11.13;4.03;;;;;;;13.51;60.94;98807.69;5103092;28;20044;-93
2021/05/18 05:34:47;;;;;;;13.07;4.53;;;;;;;13.40;61.46;98795.66;5106601;28;20128;-93
2021/05/18 05:37:13;;;;;;;8.27;3.07;;;;;;;13.92;58.99;98802.50;5115894;28;20098;-93
2021/05/18 05:39:39;;;;;;;7.25;2.80;;;;;;;14.01;57.14;98785.22;5096309;28;20047;-94
2021/05/18 05:42:05;;;;;;;12.23;2.85;;;;;;;13.91;57.60;98784.72;5110054;28;20111;-95
2021/05/18 05:44:33;;;;;;;7.90;2.63;;;;;;;13.99;56.53;98787.09;5116413;28;20079;-94
2021/05/18 05:46:59;;;;;;;9.82;2.60;;;;;;;14.28;56.97;98798.38;5115267;28;20047;-92
2021/05/18 05:49:26;;;;;;;7.25;2.42;;;;;;;14.06;58.05;98790.38;5117373;28;20040;-95
2021/05/18 05:51:52;;;;;;;9.43;2.70;;;;;;;14.11;57.07;98780.34;5113910;28;20397;-94
2021/05/18 05:54:19;;;;;;;8.52;2.58;;;;;;;13.98;57.61;98778.19;5092213;28;20455;-93
2021/05/18 05:56:45;;;;;;;8.32;2.72;;;;;;;13.96;56.96;98757.78;5094746;28;20044;-94
2021/05/18 05:59:12;;;;;;;9.23;2.95;;;;;;;14.05;56.66;98762.78;5096877;28;20072;-95
2021/05/18 06:01:38;;;;;;;8.90;2.75;;;;;;;14.25;56.43;98774.41;5092628;28;20112;-93
2021/05/18 06:04:05;;;;;;;11.45;2.55;;;;;;;14.24;57.54;98762.00;5114726;28;20053;-94
2021/05/18 06:06:32;;;;;;;8.07;2.75;;;;;;;14.19;56.86;98756.84;5107042;28;20133;-96
2021/05/18 06:08:58;;;;;;;10.32;3.35;;;;;;;14.22;56.39;98769.22;5101879;28;20040;-94
2021/05/18 06:49:19;;;;;;;17.30;3.08;;;;;;;15.79;54.13;98835.50;5187658;27;20331;-94
2021/05/18 06:51:45;;;;;;;10.27;2.97;;;;;;;15.92;53.26;98844.69;5148632;27;20050;-93
2021/05/18 06:54:11;;;;;;;13.45;3.10;;;;;;;15.98;53.13;98847.09;5144000;27;20031;-95
2021/05/18 06:56:38;;;;;;;12.02;3.30;;;;;;;16.08;52.94;98828.72;5149445;27;20051;-95
2021/05/18 07:01:48;;;;;;;14.30;2.97;;;;;;;16.75;51.21;98834.38;5136422;27;20375;-94
2021/05/18 07:04:15;;;;;;;12.05;2.83;;;;;;;16.89;50.33;98815.72;5134697;27;20039;-95
2021/05/18 07:09:40;;;;;;;10.27;3.35;;;;;;;17.16;51.07;98839.44;5134854;27;20333;-93
2021/05/18 07:12:07;;;;;;;11.75;3.30;;;;;;;16.62;51.63;98829.59;5138235;27;20058;-93
2021/05/18 07:14:33;;;;;;;12.65;3.53;;;;;;;16.65;51.66;98815.16;5141850;27;20052;-93
2021/05/18 07:16:59;;;;;;;11.65;3.25;;;;;;;17.07;51.19;98821.09;5134880;27;20100;-94
2021/05/18 07:19:25;;;;;;;14.48;3.70;;;;;;;15.97;53.79;98833.75;5136781;27;20042;-95
2021/05/18 07:21:51;;;;;;;14.73;3.15;;;;;;;16.08;55.56;98826.03;5136741;27;20050;-93
2021/05/18 07:24:22;;;;;;;8.57;3.30;;;;;;;16.54;53.57;98833.63;5134763;27;20039;-93
2021/05/18 07:26:50;;;;;;;9.60;2.83;;;;;;;17.05;52.46;98834.63;5143662;27;20122;-93
2021/05/18 07:29:16;;;;;;;12.88;3.22;;;;;;;17.14;51.91;98826.06;5141316;27;20035;-94
2021/05/18 07:31:42;;;;;;;14.55;3.75;;;;;;;16.86;52.50;98805.16;5146365;27;20039;-93
2021/05/18 07:34:09;;;;;;;11.57;3.35;;;;;;;17.25;52.31;98804.84;5143728;27;20087;-92
2021/05/18 07:36:36;;;;;;;15.20;3.35;;;;;;;17.53;50.04;98792.63;5141477;27;20053;-93
2021/05/18 07:39:02;;;;;;;15.93;3.55;;;;;;;18.05;50.18;98811.25;5149103;27;20049;-93
2021/05/18 07:41:28;;;;;;;14.05;4.38;;;;;;;18.34;48.76;98799.75;5140066;27;20069;-95
2021/05/18 07:43:55;;;;;;;17.98;4.45;;;;;;;18.14;48.99;98782.06;5136398;27;20047;-94
2021/05/18 07:46:23;;;;;;;10.98;3.05;;;;;;;18.35;48.94;98774.56;5136057;27;20050;-94
2021/05/18 08:06:44;;;;;;;13.63;3.00;;;;;;;19.12;46.61;98765.44;5155517;27;20900;-96
2021/05/18 08:09:10;;;;;;;12.30;2.72;;;;;;;19.27;47.13;98756.38;5161584;27;20043;-96
2021/05/18 08:11:36;;;;;;;17.23;3.33;;;;;;;19.22;46.74;98765.75;5157818;27;20050;-95
2021/05/18 08:14:03;;;;;;;12.50;3.08;;;;;;;19.16;46.63;98758.03;5157637;27;20514;-95
2021/05/18 10:21:52;;;;;;;11.45;2.95;;;;;;;21.91;39.46;98709.59;5169399;27;20336;-92
2021/05/18 10:40:42;;;;;;;13.27;2.53;;;;;;;22.63;38.26;98677.03;5056825;28;20412;-95
2021/05/18 10:43:23;;;;;;;12.23;2.87;;;;;;;22.69;36.54;98667.56;5056536;28;20053;-96
2021/05/18 10:46:05;;;;;;;9.05;2.53;;;;;;;22.79;37.51;98659.56;5035521;28;20042;-92
2021/05/18 10:51:56;;;;;;;9.02;2.75;;;;;;;22.32;37.95;98667.72;5157585;27;20139;-95
2021/05/18 10:54:25;;;;;;;10.15;2.85;;;;;;;22.34;37.20;98665.75;5157414;27;20055;-93
2021/05/18 10:57:15;;;;;;;11.35;2.72;;;;;;;22.15;38.41;98671.69;5144319;27;20040;-95
2021/05/18 10:59:44;;;;;;;13.23;3.67;;;;;;;22.67;37.48;98646.00;5136381;28;20046;-93
2021/05/18 11:02:13;;;;;;;10.82;2.67;;;;;;;23.22;36.95;98656.16;5135526;28;20400;-93
2021/05/18 11:04:41;;;;;;;8.48;2.22;;;;;;;23.54;37.01;98645.41;5136899;28;20103;-94
2021/05/18 11:07:10;;;;;;;13.88;2.55;;;;;;;23.58;35.99;98636.88;5139445;28;20067;-94
2021/05/18 11:09:37;;;;;;;;;;;;;;;23.95;35.58;98666.41;5138867;28;20055;-94
2021/05/18 11:15:11;;;;;;;9.77;3.00;;;;;;;22.81;38.47;98654.88;5139336;27;20357;-96
2021/05/18 11:17:39;;;;;;;9.60;2.78;;;;;;;22.32;38.62;98635.22;5138149;27;20086;-94
2021/05/18 11:20:14;;;;;;;8.67;2.50;;;;;;;22.91;38.01;98645.03;5137402;27;20051;-96
2021/05/18 11:26:21;;;;;;;9.13;2.80;;;;;;;21.40;38.59;98621.31;5151974;27;20370;-95
2021/05/18 11:28:49;;;;;;;10.45;2.63;;;;;;;21.13;39.42;98633.19;5133582;27;20108;-94
2021/05/18 11:31:23;;;;;;;9.95;2.85;;;;;;;21.60;37.61;98617.19;5131530;27;20512;-91
2021/05/18 11:33:52;;;;;;;11.38;3.10;;;;;;;22.37;38.00;98634.84;5135780;27;20823;-93
2021/05/18 11:36:20;;;;;;;6.78;2.22;;;;;;;22.64;37.58;98613.72;5135297;27;20040;-94
2021/05/18 11:38:50;;;;;;;10.57;2.63;;;;;;;22.67;35.82;98610.75;5134514;27;20488;-93
2021/05/18 11:41:19;;;;;;;8.55;2.58;;;;;;;22.10;35.91;98601.63;5134701;28;20118;-94
2021/05/18 11:43:47;;;;;;;;;;;;;;;22.24;37.17;98629.53;5137588;27;20522;-93
2021/05/18 11:46:13;;;;;;;10.88;2.30;;;;;;;22.53;35.74;98602.84;5134886;28;19930;-94
2021/05/18 11:48:41;;;;;;;9.60;2.75;;;;;;;21.51;36.60;98602.50;5120339;28;20047;-94
2021/05/18 11:51:09;;;;;;;7.75;2.20;;;;;;;21.75;37.37;98615.13;5133435;28;20043;-94
2021/05/18 11:53:38;;;;;;;7.32;2.03;;;;;;;22.37;37.47;98595.06;5128707;28;20075;-95
2021/05/18 11:56:22;;;;;;;8.90;2.22;;;;;;;22.23;36.01;98614.25;5136184;27;20051;-94
2021/05/18 11:58:57;;;;;;;10.23;2.33;;;;;;;21.63;35.60;98581.75;5131515;27;20063;-93
2021/05/18 12:01:23;;;;;;;8.13;2.55;;;;;;;22.12;35.92;98588.84;5132692;27;20040;-95
2021/05/18 12:04:00;;;;;;;6.22;2.20;;;;;;;22.72;34.72;98594.97;5134860;27;20387;-95
2021/05/18 12:06:26;;;;;;;9.48;2.50;;;;;;;23.11;34.46;98571.09;5133538;28;20075;-95
2021/05/18 12:08:56;;;;;;;7.20;2.05;;;;;;;23.58;32.06;98560.88;5135435;28;20043;-95
2021/05/18 12:11:22;;;;;;;7.50;2.10;;;;;;;24.18;31.77;98558.53;5135070;27;20044;-96
2021/05/18 12:13:52;;;;;;;6.90;2.15;;;;;;;24.32;30.04;98579.03;5137423;28;20116;-95
2021/05/18 12:16:20;;;;;;;8.40;2.28;;;;;;;23.48;30.71;98569.91;5134729;27;20051;-95
2021/05/18 12:18:53;;;;;;;7.25;1.95;;;;;;;23.27;32.43;98568.00;5133021;27;20069;-94
2021/05/18 12:21:29;;;;;;;8.85;2.10;;;;;;;23.19;32.29;98556.91;5136407;27;20404;-94
2021/05/18 12:24:04;;;;;;;5.95;1.92;;;;;;;23.62;30.90;98542.47;5137802;28;20122;-94
2021/05/18 12:26:44;;;;;;;7.03;2.10;;;;;;;23.91;31.12;98555.44;5132618;28;20069;-96
2021/05/18 12:29:34;;;;;;;8.00;2.20;;;;;;;24.10;29.70;98544.72;5139999;27;20043;-93
2021/05/18 12:32:23;;;;;;;6.22;1.95;;;;;;;23.41;30.37;98544.28;5137053;27;20039;-94
2021/05/18 12:34:56;;;;;;;7.93;1.95;;;;;;;23.85;28.78;98555.97;5136918;27;20036;-94
2021/05/18 12:37:33;;;;;;;7.20;2.58;;;;;;;23.30;27.53;98554.16;5125597;27;20165;-94
2021/05/18 12:40:28;;;;;;;7.63;1.90;;;;;;;23.21;26.44;98535.09;5125668;28;20435;-96
2021/05/18 12:43:11;;;;;;;7.03;1.98;;;;;;;23.73;26.87;98520.69;5110350;28;20039;-95
2021/05/18 12:45:39;;;;;;;6.30;1.65;;;;;;;24.14;26.73;98534.47;5120287;28;20438;-95
2021/05/18 12:48:05;;;;;;;4.57;1.70;;;;;;;24.37;27.29;98536.00;5119809;28;20082;-94
2021/05/18 12:50:40;;;;;;;5.70;1.80;;;;;;;24.15;26.30;98531.59;5119415;28;20043;-95
2021/05/18 12:53:21;;;;;;;7.47;2.15;;;;;;;23.27;26.85;98516.44;5120695;28;20047;-94
2021/05/18 12:55:48;;;;;;;7.35;1.90;;;;;;;23.35;28.68;98518.50;5121126;28;20040;-94
2021/05/18 12:58:24;;;;;;;5.28;1.60;;;;;;;23.62;29.30;98519.91;5120507;28;20092;-94
2021/05/18 13:00:51;;;;;;;5.50;1.90;;;;;;;23.83;29.72;98515.38;5120385;28;20040;-95
2021/05/18 13:03:19;;;;;;;5.85;1.98;;;;;;;23.90;28.88;98546.44;5121528;28;20548;-95
2021/05/18 13:05:48;;;;;;;6.47;1.90;;;;;;;23.81;28.66;98508.34;5131887;28;20054;-95
2021/05/18 13:08:16;;;;;;;7.00;2.20;;;;;;;23.63;28.43;98510.75;5123335;28;20048;-95
2021/05/18 13:13:50;;;;;;;8.77;2.20;;;;;;;23.95;26.92;98511.59;5155737;27;20825;-92
2021/05/18 13:16:19;;;;;;;7.07;2.13;;;;;;;23.47;26.49;98503.06;5134358;27;20046;-96
2021/05/18 13:18:57;;;;;;;4.32;1.77;;;;;;;23.54;27.12;98501.53;5150755;27;20377;-95
2021/05/18 13:21:25;;;;;;;5.90;2.17;;;;;;;23.60;29.60;98517.31;5149701;27;20054;-96
2021/05/18 13:27:04;;;;;;;6.82;2.08;;;;;;;24.06;27.76;98512.53;5169564;27;20356;-93
2021/05/18 13:29:30;;;;;;;8.00;2.00;;;;;;;23.97;27.03;98525.91;5152612;27;20049;-93
2021/05/18 13:31:56;;;;;;;5.40;2.10;;;;;;;23.57;27.89;98507.59;5157735;27;20133;-92
2021/05/18 13:34:22;;;;;;;7.13;1.92;;;;;;;23.41;27.35;98514.44;5151957;27;20552;-95
2021/05/18 13:36:53;;;;;;;8.18;2.67;;;;;;;23.18;28.33;98506.34;5156322;27;20075;-96
2021/05/18 13:39:22;;;;;;;8.18;2.80;;;;;;;23.08;29.33;98508.13;5146788;27;20055;-93
2021/05/18 13:41:49;;;;;;;7.47;2.22;;;;;;;23.03;29.01;98522.06;5157310;27;20038;-94
2021/05/18 13:44:16;;;;;;;4.00;2.00;;;;;;;23.08;29.08;98505.41;5142994;27;20499;-95
2021/05/18 13:50:11;;;;;;;8.00;2.83;;;;;;;23.01;30.23;98524.03;5138560;27;20401;-95
2021/05/18 13:52:37;;;;;;;7.55;3.03;;;;;;;23.62;29.94;98515.34;5139125;27;20083;-94
2021/05/18 13:55:04;;;;;;;11.65;3.20;;;;;;;23.76;30.53;98503.31;5139554;27;20401;-95
2021/05/18 13:57:30;;;;;;;6.38;2.65;;;;;;;23.72;30.15;98509.97;5138566;27;20043;-95
2021/05/18 13:59:56;;;;;;;6.10;2.65;;;;;;;24.34;30.46;98513.69;5137549;27;20046;-96
2021/05/18 14:02:22;;;;;;;11.88;2.58;;;;;;;24.48;28.71;98507.03;5137066;28;20041;-95
2021/05/18 14:04:48;;;;;;;5.88;1.70;;;;;;;24.51;28.00;98474.19;5137217;27;20550;-96
2021/05/18 14:10:38;;;;;;;6.15;2.40;;;;;;;22.80;30.71;98487.81;5065268;27;20142;-95
2021/05/18 14:13:04;;;;;;;6.82;2.00;;;;;;;22.96;30.19;98509.94;5049070;28;20054;-96
2021/05/18 14:15:31;;;;;;;6.55;2.35;;;;;;;22.83;30.34;98499.22;5069158;28;20039;-94
2021/05/18 14:18:03;;;;;;;8.63;2.00;;;;;;;22.60;30.27;98482.16;5104361;27;20037;-94
2021/05/18 14:20:29;;;;;;;9.10;2.30;;;;;;;22.68;30.26;98487.78;5040919;28;20049;-94
2021/05/18 14:22:55;;;;;;;7.22;2.58;;;;;;;23.38;29.57;98481.13;5041494;28;20045;-94
2021/05/18 14:25:21;;;;;;;5.53;2.30;;;;;;;23.74;28.59;98468.09;5120033;28;20051;-94
2021/05/18 14:27:48;;;;;;;7.18;2.28;;;;;;;24.12;27.69;98479.41;5136636;27;20039;-94
2021/05/18 14:30:23;;;;;;;8.20;2.15;;;;;;;24.05;28.29;98470.06;5038506;28;20105;-95
2021/05/18 14:32:52;;;;;;;4.05;1.70;;;;;;;23.98;28.09;98473.31;5071121;28;20410;-94
2021/05/18 14:35:21;;;;;;;5.72;2.17;;;;;;;24.02;27.54;98476.63;5048667;28;20102;-94
2021/05/18 14:37:54;;;;;;;6.18;2.17;;;;;;;24.38;27.63;98466.25;5053783;28;20081;-94
2021/05/18 14:58:05;;;;;;;6.50;2.20;;;;;;;24.08;27.22;98459.78;5161692;27;20374;-96
2021/05/18 15:00:46;;;;;;;4.25;1.90;;;;;;;24.16;25.87;98467.28;5156439;27;20042;-95
2021/05/18 15:03:15;;;;;;;6.60;1.67;;;;;;;24.42;26.57;98447.78;5151758;27;20047;-96
2021/05/18 15:05:43;;;;;;;6.38;1.70;;;;;;;24.92;26.05;98465.00;5154972;27;20062;-96
2021/05/18 15:08:13;;;;;;;5.47;1.67;;;;;;;24.88;25.55;98485.34;5148431;27;20071;-96
2021/05/18 15:10:45;;;;;;;6.25;1.92;;;;;;;23.87;26.89;98454.38;5158536;27;20275;-95
2021/05/18 15:13:15;;;;;;;7.95;2.30;;;;;;;23.70;27.80;98461.25;5158624;27;20035;-95
2021/05/18 15:15:41;;;;;;;3.80;1.50;;;;;;;24.14;26.96;98463.84;5150628;27;20041;-95
2021/05/18 15:18:09;;;;;;;7.05;2.03;;;;;;;24.28;26.86;98452.59;5159999;27;20050;-96
2021/05/18 15:20:35;;;;;;;3.25;1.60;;;;;;;24.50;27.33;98442.56;5148185;27;20043;-96
2021/05/18 15:23:01;;;;;;;7.28;1.88;;;;;;;24.47;26.53;98443.66;5145113;27;20043;-94
2021/05/18 15:25:27;;;;;;;9.43;1.83;;;;;;;24.24;26.82;98464.72;5146714;27;20035;-95
2021/05/18 15:27:53;;;;;;;8.65;2.05;;;;;;;24.31;27.38;98460.50;5155614;27;20388;-96
2021/05/18 15:30:20;;;;;;;7.82;2.00;;;;;;;24.16;28.43;98440.13;5158479;27;20047;-94
2021/05/18 15:32:46;;;;;;;9.35;2.47;;;;;;;24.05;27.77;98443.78;5149622;27;20040;-95
2021/05/18 15:35:12;;;;;;;5.70;1.95;;;;;;;24.08;27.25;98464.38;5127213;28;20051;-95
2021/05/18 15:37:45;;;;;;;9.88;1.85;;;;;;;23.99;27.87;98457.88;5114869;27;20122;-95
2021/05/18 15:40:12;;;;;;;7.18;2.08;;;;;;;23.59;28.56;98469.44;5134206;28;20039;-94
2021/05/18 15:42:39;;;;;;;7.88;2.58;;;;;;;23.75;28.69;98458.13;5126213;28;20035;-96
2021/05/18 15:45:06;;;;;;;9.63;2.42;;;;;;;23.83;29.02;98476.50;5112826;28;20071;-95
2021/05/18 15:47:35;;;;;;;7.35;2.17;;;;;;;23.51;29.74;98461.97;5132870;28;20066;-93
2021/05/18 15:50:01;;;;;;;8.85;2.42;;;;;;;23.47;30.26;98474.06;5124483;28;20436;-92
2021/05/18 15:52:27;;;;;;;8.15;2.40;;;;;;;23.40;30.57;98469.28;5114429;28;20043;-93
2021/05/18 15:54:53;;;;;;;8.68;2.05;;;;;;;23.06;31.32;98475.69;5118551;28;20043;-94
2021/05/18 15:57:19;;;;;;;8.13;2.40;;;;;;;23.33;32.11;98479.78;5126565;27;20131;-93
2021/05/18 15:59:49;;;;;;;9.80;2.45;;;;;;;23.17;32.21;98462.09;5115637;28;20056;-95
2021/05/18 16:02:20;;;;;;;7.45;2.40;;;;;;;23.07;33.11;98471.97;5121631;28;20389;-93
2021/05/18 16:04:47;;;;;;;8.73;2.65;;;;;;;22.90;33.02;98469.75;5118852;28;20048;-96
2021/05/18 16:07:15;;;;;;;17.75;3.38;;;;;;;22.64;32.79;98464.66;5114890;28;20408;-94
2021/05/18 16:09:41;;;;;;;6.93;2.30;;;;;;;22.50;32.82;98483.88;5108671;28;20044;-94
2021/05/18 16:12:08;;;;;;;11.07;3.00;;;;;;;22.10;32.80;98468.94;5121598;28;20074;-94
2021/05/18 16:14:36;;;;;;;5.90;2.22;;;;;;;21.94;33.49;98463.84;5121349;28;20378;-96
2021/05/18 16:17:03;;;;;;;;;;;;;;;22.21;32.83;98484.34;5106535;28;20093;-93
2021/05/18 16:19:29;;;;;;;12.05;2.30;;;;;;;22.33;32.65;98479.81;5113308;28;19961;-95
2021/05/18 16:22:02;;;;;;;10.90;2.85;;;;;;;21.98;32.79;98460.91;5113298;28;20031;-96
2021/05/18 16:24:33;;;;;;;8.02;2.38;;;;;;;21.66;33.33;98478.69;5108476;28;20063;-95
2021/05/18 16:26:59;;;;;;;4.63;2.13;;;;;;;21.46;33.39;98487.47;5103140;28;20550;-95
2021/05/18 16:29:28;;;;;;;8.27;2.70;;;;;;;21.34;33.44;98490.09;5109352;28;20036;-94
2021/05/18 16:31:56;;;;;;;5.88;2.28;;;;;;;21.02;32.99;98468.19;5101943;28;20032;-94
2021/05/18 16:34:24;;;;;;;8.75;2.20;;;;;;;21.28;32.68;98481.59;5115436;28;20485;-92
2021/05/18 16:36:50;;;;;;;5.40;1.85;;;;;;;21.12;33.27;98477.34;5108907;28;20040;-94
2021/05/18 16:39:19;;;;;;;10.75;3.40;;;;;;;21.02;33.56;98480.84;5118873;28;20127;-94
2021/05/18 16:41:53;;;;;;;7.75;2.60;;;;;;;20.91;33.67;98463.59;5116548;28;20072;-94
2021/05/18 16:44:20;;;;;;;8.52;2.85;;;;;;;20.99;33.68;98475.66;5107390;28;20052;-92
2021/05/18 16:46:46;;;;;;;9.18;3.10;;;;;;;20.99;34.60;98473.84;5115306;28;20036;-94
2021/05/18 16:49:13;;;;;;;6.53;2.30;;;;;;;20.91;34.01;98449.22;5117837;28;20042;-95
2021/05/18 16:51:39;;;;;;;9.80;2.88;;;;;;;20.96;34.55;98462.38;5111721;28;20099;-94
2021/05/18 16:54:11;;;;;;;8.10;2.33;;;;;;;20.78;34.86;98464.63;5107295;28;20443;-95
2021/05/18 16:56:45;;;;;;;9.95;3.50;;;;;;;20.57;35.72;98456.22;5117960;28;20048;-93
2021/05/18 16:59:11;;;;;;;5.35;2.50;;;;;;;20.34;36.41;98452.47;5112416;28;20042;-94
2021/05/18 17:01:37;;;;;;;7.93;2.25;;;;;;;20.12;36.80;98448.59;5111708;28;20074;-93
2021/05/18 17:04:04;;;;;;;10.93;2.10;;;;;;;20.03;36.60;98439.31;5104677;28;20036;-93
2021/05/18 17:06:30;;;;;;;6.03;2.22;;;;;;;20.09;36.85;98449.69;5111916;28;20048;-93
2021/05/18 17:08:56;;;;;;;10.50;2.53;;;;;;;20.30;37.18;98468.91;5097211;28;20123;-94
2021/05/18 17:11:27;;;;;;;7.93;2.40;;;;;;;20.23;37.19;98461.34;5108216;28;20059;-93
2021/05/18 17:13:54;;;;;;;7.95;2.38;;;;;;;20.14;36.77;98457.47;5109668;28;20044;-93
2021/05/18 17:16:21;;;;;;;8.88;3.70;;;;;;;20.11;38.14;98442.34;5104383;28;20039;-93
2021/05/18 17:18:50;;;;;;;13.52;3.28;;;;;;;19.89;37.93;98453.81;5100201;28;20040;-94
2021/05/18 17:21:16;;;;;;;8.90;2.63;;;;;;;19.75;38.61;98445.81;5097525;28;20071;-93
2021/05/18 17:23:45;;;;;;;8.90;3.53;;;;;;;19.87;38.62;98471.09;5110028;28;20039;-95
2021/05/18 17:26:12;;;;;;;9.68;2.60;;;;;;;19.57;39.88;98456.00;5117325;27;20039;-94
2021/05/18 17:28:40;;;;;;;10.18;2.30;;;;;;;19.38;39.95;98458.25;5115410;28;20039;-93
2021/05/18 17:31:11;;;;;;;9.52;2.28;;;;;;;19.24;41.10;98451.97;5111354;28;20036;-93
2021/05/18 17:33:37;;;;;;;10.18;2.53;;;;;;;19.07;41.40;98457.63;5112665;28;20039;-92
2021/05/18 17:36:08;;;;;;;8.15;2.50;;;;;;;19.02;42.15;98475.94;5107521;27;20114;-93
2021/05/18 17:38:34;;;;;;;8.98;2.50;;;;;;;18.84;41.96;98464.53;5114192;28;20040;-94
2021/05/18 17:44:26;;;;;;;10.50;2.70;;;;;;;18.67;43.22;98482.63;5115632;27;20368;-96